Time;durP1;ratioP1;P1;durP2;ratioP2;P2;SDS_P1;SDS_P2;PMS_P1;PMS_P2;Temp;Humidity;BMP_temperature;BMP_pressure;BME280_temperature;BME280_humidity;BME280_pressure;Samples;Min_cycle;Max_cycle;Signal;HPM_P1;HPM_P2
2022/07/14 00:01:38;;;;;;;0.88;0.68;;;19.90;65.00;;;;;;5042767;28;20075;-72
2022/07/14 00:04:04;;;;;;;1.10;0.77;;;19.80;65.10;;;;;;5054009;28;20455;-71
2022/07/14 00:06:30;;;;;;;5.38;1.05;;;19.80;65.80;;;;;;5055243;28;20570;-71
2022/07/14 00:08:56;;;;;;;5.18;1.27;;;19.80;65.40;;;;;;5049508;28;20023;-72
2022/07/14 00:11:22;;;;;;;2.47;0.68;;;19.80;65.50;;;;;;5064931;28;20033;-72
2022/07/14 00:13:47;;;;;;;1.48;0.90;;;19.70;65.60;;;;;;5049547;28;20028;-72
2022/07/14 00:16:13;;;;;;;2.28;0.85;;;19.80;65.70;;;;;;5047432;28;20036;-72
2022/07/14 00:18:43;;;;;;;5.22;1.88;;;19.70;65.70;;;;;;5049881;28;20040;-71
2022/07/14 00:21:18;;;;;;;1.90;1.08;;;19.70;65.70;;;;;;5047949;28;20040;-72
2022/07/14 00:23:45;;;;;;;7.07;0.88;;;19.70;65.70;;;;;;5049529;28;20452;-71
2022/07/14 00:26:12;;;;;;;5.55;1.20;;;19.60;65.80;;;;;;5049674;28;20025;-71
2022/07/14 00:28:38;;;;;;;1.63;0.80;;;19.60;65.90;;;;;;5058365;28;20036;-72
2022/07/14 00:31:11;;;;;;;1.40;1.23;;;19.50;66.00;;;;;;5047080;28;20036;-72
2022/07/14 00:33:40;;;;;;;5.32;1.05;;;19.50;66.10;;;;;;5048931;28;20036;-72
2022/07/14 00:36:07;;;;;;;2.25;0.80;;;19.50;66.30;;;;;;5047877;28;20037;-72
2022/07/14 00:38:34;;;;;;;2.47;0.60;;;19.40;66.30;;;;;;5056456;28;20515;-72
2022/07/14 00:40:59;;;;;;;1.15;0.80;;;19.40;66.40;;;;;;5055228;28;20065;-72
2022/07/14 00:43:25;;;;;;;3.67;1.55;;;19.30;66.40;;;;;;5033291;28;20455;-72
2022/07/14 00:45:51;;;;;;;1.88;1.00;;;19.30;66.70;;;;;;5041581;28;20021;-72
2022/07/14 00:48:17;;;;;;;1.17;0.98;;;19.30;66.90;;;;;;5049206;28;20040;-72
2022/07/14 00:50:44;;;;;;;2.75;1.02;;;19.30;67.00;;;;;;5049431;28;20017;-72
2022/07/14 00:53:11;;;;;;;1.63;0.93;;;19.30;67.00;;;;;;5049047;28;20037;-72
2022/07/14 00:55:40;;;;;;;3.65;1.58;;;19.30;67.10;;;;;;5048977;28;20467;-72
2022/07/14 00:58:05;;;;;;;4.15;1.48;;;19.30;66.90;;;;;;5048215;28;20480;-72
2022/07/14 01:00:32;;;;;;;2.67;0.95;;;19.30;67.00;;;;;;5061477;28;20052;-71
2022/07/14 01:02:57;;;;;;;1.63;1.15;;;19.20;67.00;;;;;;5041791;28;20694;-72
2022/07/14 01:05:23;;;;;;;2.50;0.80;;;19.30;67.10;;;;;;5049481;28;20040;-71
2022/07/14 01:07:49;;;;;;;2.30;1.20;;;19.30;67.00;;;;;;5060467;28;20041;-72
2022/07/14 01:10:15;;;;;;;2.30;0.70;;;19.40;67.00;;;;;;5049686;28;20612;-71
2022/07/14 01:12:49;;;;;;;3.97;1.00;;;19.30;66.90;;;;;;5063935;28;20039;-72
2022/07/14 01:15:20;;;;;;;8.05;1.38;;;19.40;66.90;;;;;;5051445;28;20056;-72
2022/07/14 01:17:47;;;;;;;3.70;1.33;;;19.40;66.80;;;;;;5043091;28;20044;-72
2022/07/14 01:20:16;;;;;;;6.00;1.27;;;19.40;66.80;;;;;;5042861;28;20090;-72
2022/07/14 01:22:42;;;;;;;2.03;1.27;;;19.30;66.70;;;;;;5027571;28;20029;-72
2022/07/14 01:25:09;;;;;;;3.53;1.38;;;19.40;66.70;;;;;;5047694;28;20033;-72
2022/07/14 01:27:35;;;;;;;0.70;0.70;;;19.30;66.60;;;;;;5047634;28;20120;-71
2022/07/14 01:30:01;;;;;;;1.13;1.02;;;19.30;66.60;;;;;;5047849;28;20112;-71
2022/07/14 01:32:27;;;;;;;0.90;0.73;;;19.20;66.60;;;;;;5043336;28;20072;-72
2022/07/14 01:34:52;;;;;;;1.95;0.75;;;19.20;66.70;;;;;;5047118;28;20032;-72
2022/07/14 01:37:19;;;;;;;2.80;0.80;;;19.20;66.70;;;;;;5060345;28;20060;-72
2022/07/14 01:39:45;;;;;;;1.48;0.90;;;19.10;66.60;;;;;;5048502;28;20025;-72
2022/07/14 01:42:11;;;;;;;1.23;0.85;;;19.10;66.80;;;;;;5045788;28;20043;-71
2022/07/14 01:44:37;;;;;;;2.42;1.25;;;19.00;66.80;;;;;;5047526;28;20104;-71
2022/07/14 01:47:03;;;;;;;2.80;1.30;;;19.00;66.90;;;;;;5046828;28;20043;-72
2022/07/14 01:49:29;;;;;;;3.22;1.33;;;19.00;66.90;;;;;;5052909;28;20396;-65
2022/07/14 01:51:54;;;;;;;3.08;1.25;;;18.90;66.90;;;;;;5063993;28;20110;-66
2022/07/14 01:54:20;;;;;;;1.35;1.00;;;18.90;67.00;;;;;;5031250;28;20036;-71
2022/07/14 01:56:46;;;;;;;4.00;1.23;;;18.90;66.90;;;;;;5048455;28;20033;-71
2022/07/14 01:59:11;;;;;;;2.55;0.63;;;18.90;67.00;;;;;;5058712;28;20112;-66
2022/07/14 02:01:40;;;;;;;1.50;1.02;;;18.90;67.00;;;;;;5053988;28;20117;-72
2022/07/14 02:04:11;;;;;;;2.15;0.80;;;18.80;66.90;;;;;;5052183;28;20041;-65
2022/07/14 02:06:41;;;;;;;1.65;1.20;;;18.80;67.00;;;;;;5058549;28;20033;-66
2022/07/14 02:09:06;;;;;;;0.60;0.43;;;18.70;67.00;;;;;;5064763;28;20425;-66
2022/07/14 02:14:16;;;;;;;3.83;1.17;;;18.60;67.10;;;;;;5050515;28;20431;-72
2022/07/14 02:16:42;;;;;;;1.67;0.90;;;18.60;67.20;;;;;;5050452;28;20033;-66
2022/07/14 02:19:07;;;;;;;0.70;0.70;;;18.50;67.20;;;;;;5051255;28;20072;-71
2022/07/14 02:21:34;;;;;;;3.85;1.00;;;18.50;67.20;;;;;;5052063;28;20044;-71
2022/07/14 02:23:59;;;;;;;2.53;0.73;;;18.50;67.20;;;;;;5052563;28;20044;-66
2022/07/14 02:26:26;;;;;;;3.83;0.90;;;18.50;67.20;;;;;;5051824;28;20040;-65
2022/07/14 02:28:53;;;;;;;3.03;1.20;;;18.50;67.20;;;;;;5052371;28;20150;-71
2022/07/14 02:31:18;;;;;;;0.75;0.52;;;18.40;67.20;;;;;;5050144;28;20454;-66
2022/07/14 02:33:45;;;;;;;4.90;1.02;;;18.40;67.20;;;;;;5048929;28;20057;-66
2022/07/14 02:36:11;;;;;;;1.65;1.13;;;18.40;67.30;;;;;;5051669;28;20025;-71
2022/07/14 02:38:37;;;;;;;1.52;0.95;;;18.30;67.20;;;;;;5051911;28;20029;-71
2022/07/14 02:41:04;;;;;;;0.85;0.73;;;18.30;67.30;;;;;;5051717;28;20040;-71
2022/07/14 02:43:31;;;;;;;1.30;0.77;;;18.20;67.20;;;;;;5051733;28;20479;-72
2022/07/14 02:45:58;;;;;;;6.38;1.38;;;18.20;67.30;;;;;;5041698;28;20128;-72
2022/07/14 02:48:24;;;;;;;1.58;1.05;;;18.20;67.50;;;;;;5052235;28;20039;-72
2022/07/14 02:50:49;;;;;;;1.23;0.80;;;18.20;67.50;;;;;;5052255;28;20029;-71
2022/07/14 02:53:15;;;;;;;2.35;0.90;;;18.20;67.50;;;;;;5050356;28;20090;-65
2022/07/14 02:55:40;;;;;;;1.30;0.52;;;18.20;67.50;;;;;;5051487;28;20033;-66
2022/07/14 02:58:06;;;;;;;0.88;0.70;;;18.10;67.40;;;;;;5051045;28;20029;-66
2022/07/14 03:00:33;;;;;;;1.98;0.80;;;18.10;68.10;;;;;;5053082;28;20076;-66
2022/07/14 03:03:00;;;;;;;2.38;1.23;;;18.10;67.70;;;;;;5052800;28;20118;-66
2022/07/14 03:05:26;;;;;;;1.20;1.10;;;18.10;67.70;;;;;;5046045;28;20643;-66
2022/07/14 03:07:52;;;;;;;2.80;0.90;;;18.00;67.50;;;;;;5048561;28;20037;-65
2022/07/14 03:10:18;;;;;;;4.53;0.73;;;18.00;67.60;;;;;;5049060;28;20112;-65
2022/07/14 03:12:44;;;;;;;1.65;0.55;;;17.90;67.50;;;;;;5048869;28;20036;-65
2022/07/14 03:15:10;;;;;;;1.80;0.75;;;17.90;67.70;;;;;;5048235;28;20027;-66
2022/07/14 03:17:38;;;;;;;3.92;0.70;;;17.80;67.70;;;;;;5046849;28;20548;-66
2022/07/14 03:20:06;;;;;;;2.60;1.13;;;17.80;67.70;;;;;;5066690;28;20515;-65
2022/07/14 03:22:32;;;;;;;1.70;1.02;;;17.70;67.70;;;;;;5051079;28;20028;-65
2022/07/14 03:24:58;;;;;;;0.75;0.75;;;17.70;67.80;;;;;;5048991;28;20025;-65
2022/07/14 03:27:25;;;;;;;2.22;0.90;;;17.60;67.80;;;;;;5047827;28;20037;-65
2022/07/14 03:29:51;;;;;;;3.05;0.90;;;17.60;67.90;;;;;;5051456;28;20013;-66
2022/07/14 03:32:16;;;;;;;1.73;0.80;;;17.60;67.90;;;;;;5045019;28;20444;-65
2022/07/14 03:34:42;;;;;;;5.55;1.58;;;17.50;67.80;;;;;;5049973;28;20467;-66
2022/07/14 03:37:09;;;;;;;1.60;0.98;;;17.50;67.90;;;;;;5041743;28;20537;-66
2022/07/14 03:39:34;;;;;;;2.53;0.80;;;17.50;68.00;;;;;;5049473;28;20040;-66
2022/07/14 03:42:00;;;;;;;2.15;1.13;;;17.40;68.00;;;;;;5059544;28;20120;-65
2022/07/14 03:44:26;;;;;;;2.63;1.48;;;17.40;68.00;;;;;;5049898;28;20255;-66
2022/07/14 03:46:51;;;;;;;3.63;0.77;;;17.40;68.00;;;;;;5049319;28;20028;-66
2022/07/14 03:49:17;;;;;;;1.52;0.63;;;17.30;68.00;;;;;;5046563;28;20060;-66
2022/07/14 03:51:43;;;;;;;2.97;1.05;;;17.30;68.10;;;;;;5037470;28;20029;-67
2022/07/14 03:54:10;;;;;;;3.40;1.00;;;17.20;68.10;;;;;;5051832;28;20488;-66
2022/07/14 03:56:37;;;;;;;3.67;1.70;;;17.30;68.20;;;;;;5048966;28;20522;-65
2022/07/14 03:59:03;;;;;;;0.60;0.60;;;17.20;68.20;;;;;;5038974;28;20021;-66
2022/07/14 04:01:29;;;;;;;1.98;1.25;;;17.20;68.30;;;;;;5029964;28;20049;-71
2022/07/14 04:03:55;;;;;;;1.45;0.77;;;17.20;68.30;;;;;;5032398;28;20026;-71
2022/07/14 04:06:21;;;;;;;3.88;1.08;;;17.30;68.50;;;;;;5035056;28;20017;-72
2022/07/14 04:08:46;;;;;;;2.53;1.20;;;17.20;68.40;;;;;;5045951;28;20501;-71
2022/07/14 04:11:13;;;;;;;1.10;0.95;;;17.30;68.50;;;;;;5035605;28;20038;-71
2022/07/14 04:13:39;;;;;;;1.38;0.95;;;17.30;68.50;;;;;;5037010;28;20033;-71
2022/07/14 04:16:05;;;;;;;3.13;0.93;;;17.30;68.50;;;;;;5035267;28;20483;-66
2022/07/14 04:18:31;;;;;;;4.90;1.05;;;17.30;68.50;;;;;;5033950;28;20430;-72
2022/07/14 04:20:56;;;;;;;1.45;0.85;;;17.30;68.40;;;;;;5037461;28;20140;-71
2022/07/14 04:23:22;;;;;;;1.23;0.82;;;17.30;68.50;;;;;;5030894;28;20167;-71
2022/07/14 04:25:48;;;;;;;2.67;1.25;;;17.30;68.60;;;;;;5049778;28;20045;-71
2022/07/14 04:28:17;;;;;;;3.10;0.70;;;17.40;68.50;;;;;;5041214;28;20059;-72
2022/07/14 04:30:43;;;;;;;1.38;0.85;;;17.40;68.60;;;;;;5048018;28;20451;-66
2022/07/14 04:33:12;;;;;;;9.40;1.00;;;17.50;68.70;;;;;;5053871;28;20063;-66
2022/07/14 04:35:38;;;;;;;1.15;0.95;;;17.50;68.70;;;;;;5035113;28;20210;-71
2022/07/14 04:38:04;;;;;;;3.80;1.20;;;17.50;68.60;;;;;;5032733;28;20110;-71
2022/07/14 04:40:30;;;;;;;1.70;0.95;;;17.60;68.60;;;;;;5059574;28;20472;-66
2022/07/14 04:42:56;;;;;;;0.98;0.82;;;17.60;68.70;;;;;;5049208;28;20021;-66
2022/07/14 04:45:22;;;;;;;4.18;1.30;;;17.70;68.70;;;;;;5034569;28;20033;-66
2022/07/14 04:47:49;;;;;;;2.78;0.80;;;17.70;68.70;;;;;;5033988;28;20124;-71
2022/07/14 04:52:59;;;;;;;0.63;0.63;;;17.90;68.60;;;;;;5044145;28;20048;-71
2022/07/14 04:55:25;;;;;;;1.63;0.90;;;17.90;68.50;;;;;;5045747;28;20029;-71
2022/07/14 04:57:50;;;;;;;1.08;0.70;;;17.90;68.50;;;;;;5045721;28;20125;-72
2022/07/14 05:00:16;;;;;;;1.40;0.73;;;18.00;68.50;;;;;;5048010;28;20156;-66
2022/07/14 05:02:42;;;;;;;2.10;0.70;;;18.00;68.50;;;;;;5046374;28;20037;-72
2022/07/14 05:05:08;;;;;;;1.23;0.88;;;18.10;68.60;;;;;;5046943;28;20044;-66
2022/07/14 05:07:34;;;;;;;0.95;0.60;;;18.10;68.50;;;;;;5045022;28;20025;-66
2022/07/14 05:10:00;;;;;;;1.65;0.93;;;18.20;69.20;;;;;;5056594;28;20485;-66
2022/07/14 05:12:26;;;;;;;2.20;1.42;;;18.30;68.60;;;;;;5063282;28;20033;-66
2022/07/14 05:14:52;;;;;;;1.23;1.05;;;18.30;68.50;;;;;;5048596;28;20025;-66
2022/07/14 05:17:18;;;;;;;2.95;0.95;;;18.40;68.40;;;;;;5047838;28;20104;-72
2022/07/14 05:19:47;;;;;;;1.98;0.85;;;18.40;68.30;;;;;;5047606;28;20071;-66
2022/07/14 05:22:12;;;;;;;1.17;0.98;;;18.50;68.30;;;;;;5056333;28;20136;-72
2022/07/14 05:24:38;;;;;;;3.72;0.70;;;18.50;68.30;;;;;;5046951;28;20487;-72
2022/07/14 05:27:04;;;;;;;2.40;1.25;;;18.50;68.20;;;;;;5038858;28;20587;-66
2022/07/14 05:29:31;;;;;;;2.85;0.88;;;18.60;68.30;;;;;;5047212;28;20064;-66
2022/07/14 05:32:00;;;;;;;0.63;0.63;;;18.70;68.20;;;;;;5047648;28;20090;-71
2022/07/14 05:34:27;;;;;;;1.20;0.55;;;18.70;68.10;;;;;;5053139;28;20444;-72
2022/07/14 05:36:52;;;;;;;3.50;0.75;;;18.70;68.00;;;;;;5038295;28;20123;-66
2022/07/14 05:39:18;;;;;;;1.00;0.60;;;18.80;68.00;;;;;;5047341;28;20108;-66
2022/07/14 05:41:44;;;;;;;1.98;1.13;;;18.80;67.90;;;;;;5048226;28;20488;-66
2022/07/14 05:44:09;;;;;;;1.75;0.70;;;18.90;67.80;;;;;;5050770;28;20029;-72
2022/07/14 05:46:35;;;;;;;4.47;1.20;;;18.90;67.60;;;;;;5049015;28;20025;-66
2022/07/14 05:49:01;;;;;;;0.68;0.38;;;19.00;67.70;;;;;;5047401;28;20121;-65
2022/07/14 05:51:26;;;;;;;4.43;1.02;;;19.00;67.60;;;;;;5051734;28;20803;-72
2022/07/14 05:53:52;;;;;;;0.80;0.47;;;19.00;67.60;;;;;;5051452;28;20476;-72
2022/07/14 05:56:18;;;;;;;1.17;0.50;;;19.10;67.60;;;;;;5045438;28;20112;-71
2022/07/14 05:58:45;;;;;;;0.50;0.50;;;19.10;67.40;;;;;;5052976;28;20043;-66
2022/07/14 06:01:12;;;;;;;1.25;0.77;;;19.10;67.30;;;;;;5042921;28;20049;-72
2022/07/14 06:03:37;;;;;;;1.27;0.80;;;19.20;67.30;;;;;;5049813;28;20036;-71
2022/07/14 06:06:06;;;;;;;2.47;1.00;;;19.20;67.30;;;;;;5046508;28;20029;-72
2022/07/14 06:08:32;;;;;;;1.30;0.85;;;19.30;67.20;;;;;;5045712;28;20033;-72
2022/07/14 06:10:59;;;;;;;2.03;0.60;;;19.40;67.10;;;;;;5051118;28;20119;-66
2022/07/14 06:13:26;;;;;;;2.67;0.82;;;19.40;66.80;;;;;;5049801;28;20105;-72
2022/07/14 06:15:53;;;;;;;1.40;0.60;;;19.50;66.60;;;;;;5067353;28;20033;-66
2022/07/14 06:18:19;;;;;;;0.93;0.65;;;19.50;66.60;;;;;;5050797;28;20032;-66
2022/07/14 06:20:45;;;;;;;4.25;1.27;;;19.60;66.40;;;;;;5040587;28;20120;-72
2022/07/14 06:23:11;;;;;;;1.65;0.90;;;19.60;66.30;;;;;;5044233;28;20100;-72
2022/07/14 06:25:38;;;;;;;2.35;0.60;;;19.60;66.20;;;;;;5041873;28;20376;-72
2022/07/14 06:28:04;;;;;;;3.22;1.35;;;19.70;66.20;;;;;;5041354;28;20037;-72
2022/07/14 06:30:30;;;;;;;1.35;0.93;;;19.80;66.20;;;;;;5045908;28;20048;-72
2022/07/14 06:32:56;;;;;;;2.05;1.13;;;19.90;65.90;;;;;;5051875;28;20087;-72
2022/07/14 06:35:22;;;;;;;3.30;0.98;;;19.90;65.60;;;;;;5051003;28;20392;-72
2022/07/14 06:37:48;;;;;;;1.23;0.80;;;20.00;65.60;;;;;;5047887;28;20037;-72
2022/07/14 06:40:14;;;;;;;3.13;0.50;;;20.10;65.40;;;;;;5046741;28;20036;-72
2022/07/14 06:42:39;;;;;;;2.40;1.08;;;20.10;65.10;;;;;;5051586;28;20029;-72
2022/07/14 06:45:06;;;;;;;0.63;0.55;;;20.10;65.00;;;;;;5038422;28;20040;-71
2022/07/14 06:47:31;;;;;;;2.40;1.17;;;20.10;64.90;;;;;;5051409;28;20041;-72
2022/07/14 06:49:59;;;;;;;0.70;0.70;;;20.20;64.80;;;;;;5024322;28;20048;-66
2022/07/14 06:52:25;;;;;;;0.40;0.40;;;20.20;64.70;;;;;;5061500;28;20096;-71
2022/07/14 06:54:52;;;;;;;2.45;0.90;;;20.30;64.50;;;;;;5042264;28;20040;-67
2022/07/14 06:57:19;;;;;;;1.55;0.70;;;20.30;64.40;;;;;;5041508;28;20031;-66
2022/07/14 06:59:45;;;;;;;0.77;0.60;;;20.40;64.70;;;;;;5043812;28;20090;-71
2022/07/14 07:02:11;;;;;;;1.65;0.63;;;20.50;64.20;;;;;;5047448;28;20105;-66
2022/07/14 07:04:37;;;;;;;2.15;0.70;;;20.50;64.10;;;;;;5044004;28;20458;-66
2022/07/14 07:07:03;;;;;;;3.30;0.90;;;20.60;63.80;;;;;;5050655;28;20529;-71
2022/07/14 07:09:30;;;;;;;0.55;0.55;;;20.60;63.70;;;;;;5062425;28;20108;-71
2022/07/14 07:11:55;;;;;;;1.17;0.80;;;20.70;63.70;;;;;;5054610;28;20033;-70
2022/07/14 07:14:21;;;;;;;0.80;0.47;;;20.70;63.50;;;;;;5047926;28;20040;-71
2022/07/14 07:16:48;;;;;;;1.65;0.80;;;20.70;63.20;;;;;;5048127;28;20048;-71
2022/07/14 07:19:15;;;;;;;0.50;0.47;;;20.80;63.00;;;;;;5054756;28;20043;-71
2022/07/14 07:21:41;;;;;;;0.60;0.55;;;20.80;62.90;;;;;;5040922;28;20443;-71
2022/07/14 07:24:06;;;;;;;1.10;0.68;;;20.90;62.80;;;;;;5049435;28;20125;-71
2022/07/14 07:26:34;;;;;;;2.28;0.85;;;20.90;62.80;;;;;;5058523;28;20040;-71
2022/07/14 07:29:00;;;;;;;0.98;0.77;;;21.00;62.70;;;;;;5047214;28;20025;-71
2022/07/14 07:31:25;;;;;;;0.70;0.68;;;21.10;62.40;;;;;;5058559;28;20379;-71
2022/07/14 07:33:52;;;;;;;0.20;0.20;;;21.20;62.40;;;;;;5052740;28;20734;-71
2022/07/14 07:36:18;;;;;;;3.25;1.02;;;21.30;62.00;;;;;;5056838;28;20044;-66
2022/07/14 07:38:44;;;;;;;4.15;0.60;;;21.30;61.40;;;;;;5077381;28;20325;-67
2022/07/14 07:41:09;;;;;;;0.68;0.50;;;21.30;61.00;;;;;;5045969;28;20475;-66
2022/07/14 07:43:36;;;;;;;2.28;0.82;;;21.40;61.00;;;;;;5051650;28;20082;-66
2022/07/14 07:46:05;;;;;;;1.27;1.05;;;21.50;60.60;;;;;;5051222;28;20086;-66
2022/07/14 07:48:34;;;;;;;0.98;0.60;;;21.50;60.50;;;;;;5055573;28;20036;-66
2022/07/14 07:51:00;;;;;;;3.00;0.65;;;21.60;60.20;;;;;;5062121;28;20032;-66
2022/07/14 07:53:26;;;;;;;0.63;0.40;;;21.70;60.00;;;;;;5068345;28;20033;-71
2022/07/14 07:55:52;;;;;;;1.45;0.40;;;21.80;59.40;;;;;;5061891;28;20086;-66
2022/07/14 07:58:18;;;;;;;3.03;1.33;;;21.80;59.10;;;;;;5056949;28;20032;-66
2022/07/14 08:00:44;;;;;;;0.68;0.40;;;21.90;58.90;;;;;;5048541;28;20146;-66
2022/07/14 08:03:10;;;;;;;0.60;0.60;;;22.00;58.60;;;;;;5050695;28;20041;-66
2022/07/14 08:05:36;;;;;;;1.73;0.70;;;22.10;58.40;;;;;;5050505;28;20047;-71
2022/07/14 08:08:02;;;;;;;0.40;0.30;;;22.10;57.90;;;;;;5064000;28;20052;-71
2022/07/14 08:10:28;;;;;;;0.93;0.38;;;22.20;58.10;;;;;;5051154;28;20025;-71
2022/07/14 08:12:54;;;;;;;2.40;1.58;;;22.30;57.70;;;;;;5035331;28;20104;-71
2022/07/14 08:15:19;;;;;;;0.55;0.30;;;22.30;57.50;;;;;;5050630;28;20109;-71
2022/07/14 08:17:45;;;;;;;0.32;0.32;;;22.40;57.10;;;;;;5031830;28;20492;-72
2022/07/14 08:20:12;;;;;;;0.40;0.40;;;22.40;57.20;;;;;;5045020;28;20029;-72
2022/07/14 08:22:38;;;;;;;0.82;0.70;;;22.40;57.30;;;;;;5044785;28;20098;-71
2022/07/14 08:25:06;;;;;;;0.70;0.50;;;22.50;57.20;;;;;;5045124;28;20052;-71
2022/07/14 08:27:33;;;;;;;5.03;1.13;;;22.60;57.20;;;;;;5048292;28;20087;-71
2022/07/14 08:29:59;;;;;;;2.42;1.27;;;22.70;56.70;;;;;;5047402;28;20112;-71
2022/07/14 08:32:35;;;;;;;0.30;0.30;;;22.70;56.60;;;;;;5047147;28;20381;-71
2022/07/14 08:35:03;;;;;;;3.20;0.35;;;22.80;57.10;;;;;;5049126;28;20039;-72
2022/07/14 08:37:29;;;;;;;2.05;0.75;;;22.90;56.40;;;;;;5048944;28;20025;-71
2022/07/14 08:39:54;;;;;;;0.43;0.35;;;23.10;55.70;;;;;;5044960;28;20116;-66
2022/07/14 08:42:21;;;;;;;2.75;0.95;;;23.20;55.30;;;;;;5048653;28;20466;-66
2022/07/14 08:44:48;;;;;;;1.90;0.60;;;23.30;54.30;;;;;;5048923;28;20036;-67
2022/07/14 08:47:14;;;;;;;0.47;0.47;;;23.30;53.70;;;;;;5049623;28;20044;-66
2022/07/14 08:49:40;;;;;;;1.50;0.73;;;23.30;53.00;;;;;;5045208;28;20025;-66
2022/07/14 08:52:05;;;;;;;3.33;0.50;;;23.40;52.90;;;;;;5055053;28;20090;-66
2022/07/14 08:54:35;;;;;;;2.38;0.50;;;23.40;53.00;;;;;;5045289;28;20025;-67
2022/07/14 08:57:02;;;;;;;0.82;0.57;;;23.50;52.60;;;;;;5059838;28;20108;-66
2022/07/14 08:59:28;;;;;;;1.65;0.50;;;23.60;52.80;;;;;;5046953;28;20025;-71
2022/07/14 09:01:56;;;;;;;1.27;0.47;;;23.60;52.80;;;;;;5047406;28;20060;-71
2022/07/14 09:04:22;;;;;;;0.50;0.50;;;23.70;52.30;;;;;;5045558;28;20029;-66
2022/07/14 09:06:53;;;;;;;0.73;0.70;;;23.80;51.80;;;;;;5048697;28;20130;-66
2022/07/14 09:09:24;;;;;;;0.77;0.70;;;23.80;51.60;;;;;;5044992;28;20074;-66
2022/07/14 09:11:51;;;;;;;0.30;0.30;;;23.90;52.00;;;;;;5042121;28;20413;-66
2022/07/14 09:14:17;;;;;;;0.35;0.35;;;24.00;52.00;;;;;;5048892;28;20082;-67
2022/07/14 09:16:43;;;;;;;0.40;0.40;;;24.10;51.70;;;;;;5041361;28;20135;-66
2022/07/14 09:19:12;;;;;;;0.60;0.60;;;24.20;50.80;;;;;;5046922;28;20535;-72
2022/07/14 09:21:39;;;;;;;0.30;0.30;;;24.20;50.50;;;;;;5044740;28;20055;-71
2022/07/14 09:24:09;;;;;;;0.80;0.45;;;24.30;50.70;;;;;;5055949;28;20044;-71
2022/07/14 09:26:42;;;;;;;0.38;0.30;;;24.30;50.90;;;;;;5046345;28;20029;-66
2022/07/14 09:29:15;;;;;;;0.30;0.30;;;24.50;50.70;;;;;;5034939;28;20044;-66
2022/07/14 09:31:41;;;;;;;0.40;0.38;;;24.60;51.10;;;;;;5043661;28;20036;-66
2022/07/14 09:34:07;;;;;;;1.15;0.60;;;24.70;50.30;;;;;;5040319;28;20036;-67
2022/07/14 09:36:35;;;;;;;0.40;0.40;;;24.90;49.80;;;;;;5043756;28;20033;-66
2022/07/14 09:39:04;;;;;;;0.52;0.52;;;25.10;49.80;;;;;;5061524;28;20099;-67
2022/07/14 09:41:36;;;;;;;0.40;0.40;;;25.10;48.80;;;;;;5043466;28;20108;-72
2022/07/14 09:44:06;;;;;;;0.93;0.60;;;25.20;48.90;;;;;;5042520;28;20488;-72
2022/07/14 09:46:54;;;;;;;0.43;0.38;;;25.30;49.00;;;;;;5039102;28;20060;-72
2022/07/14 09:49:22;;;;;;;0.45;0.30;;;25.30;49.00;;;;;;5040288;28;20072;-72
2022/07/14 09:51:59;;;;;;;0.47;0.32;;;25.30;49.10;;;;;;5047124;28;20025;-72
2022/07/14 09:54:37;;;;;;;0.45;0.45;;;25.40;49.10;;;;;;5046713;28;20033;-72
2022/07/14 09:57:24;;;;;;;0.52;0.52;;;25.30;48.10;;;;;;5044613;28;20368;-72
2022/07/14 09:59:52;;;;;;;0.40;0.40;;;25.20;48.50;;;;;;5061648;28;20036;-72
2022/07/14 10:02:21;;;;;;;0.35;0.35;;;25.20;48.60;;;;;;5046856;28;20052;-72
2022/07/14 10:04:49;;;;;;;0.30;0.30;;;25.40;47.30;;;;;;5053103;28;20055;-72
2022/07/14 10:07:16;;;;;;;0.80;0.65;;;25.50;47.50;;;;;;5047298;28;20468;-72
2022/07/14 10:09:59;;;;;;;0.85;0.30;;;25.80;47.20;;;;;;5046890;28;20409;-72
2022/07/14 10:12:26;;;;;;;0.75;0.57;;;25.90;46.30;;;;;;5043251;28;20025;-71
2022/07/14 10:14:53;;;;;;;0.75;0.40;;;25.80;46.30;;;;;;5039111;28;20343;-65
2022/07/14 10:17:19;;;;;;;0.80;0.80;;;25.80;45.30;;;;;;5042029;28;20025;-66
2022/07/14 10:19:46;;;;;;;0.40;0.40;;;25.80;44.20;;;;;;5042460;28;20052;-71
2022/07/14 10:22:14;;;;;;;2.25;0.40;;;25.70;45.00;;;;;;5043903;28;20048;-71
2022/07/14 10:24:40;;;;;;;1.45;0.93;;;25.70;45.20;;;;;;5045633;28;20415;-66
2022/07/14 10:27:06;;;;;;;1.30;0.60;;;25.80;45.30;;;;;;5047417;28;20499;-65
2022/07/14 10:29:32;;;;;;;0.77;0.77;;;25.90;45.20;;;;;;5046511;28;20056;-65
2022/07/14 10:32:25;;;;;;;1.00;0.50;;;26.20;43.80;;;;;;5040515;28;20116;-65
2022/07/14 10:34:56;;;;;;;0.40;0.40;;;26.10;43.00;;;;;;5047905;28;20021;-65
2022/07/14 10:37:41;;;;;;;0.30;0.30;;;25.90;43.40;;;;;;5050227;28;20632;-66
2022/07/14 10:40:16;;;;;;;0.30;0.30;;;26.00;43.60;;;;;;5047616;28;20108;-66
2022/07/14 10:43:03;;;;;;;0.30;0.30;;;26.20;43.70;;;;;;5047481;28;20052;-66
2022/07/14 10:45:29;;;;;;;0.55;0.55;;;26.30;43.20;;;;;;5049744;28;20033;-65
2022/07/14 10:47:55;;;;;;;0.63;0.52;;;26.30;42.30;;;;;;5051420;28;20369;-66
2022/07/14 10:50:23;;;;;;;0.40;0.40;;;26.30;42.50;;;;;;5050183;28;20178;-65
2022/07/14 10:52:54;;;;;;;0.40;0.40;;;26.30;42.60;;;;;;5049760;28;20525;-65
2022/07/14 10:55:23;;;;;;;0.50;0.50;;;26.40;42.80;;;;;;5043400;28;20021;-66
2022/07/14 10:58:06;;;;;;;0.30;0.30;;;26.50;42.30;;;;;;5049115;28;20045;-72
2022/07/14 11:00:44;;;;;;;1.52;0.70;;;26.60;41.90;;;;;;5051129;28;20055;-66
2022/07/14 11:03:24;;;;;;;0.40;0.40;;;26.50;41.80;;;;;;5050719;28;20494;-72
2022/07/14 11:06:08;;;;;;;1.25;0.40;;;26.50;41.90;;;;;;5052131;28;20065;-65
2022/07/14 11:08:39;;;;;;;0.50;0.43;;;26.70;42.00;;;;;;5051909;28;20036;-66
2022/07/14 11:11:15;;;;;;;0.40;0.40;;;26.70;41.50;;;;;;5049889;28;20029;-71
2022/07/14 11:13:59;;;;;;;2.40;0.85;;;26.80;41.80;;;;;;5050458;28;20033;-66
2022/07/14 11:17:00;;;;;;;0.50;0.50;;;26.70;41.40;;;;;;5045976;28;20424;-65
2022/07/14 11:19:38;;;;;;;2.40;0.50;;;26.80;41.70;;;;;;5014769;28;20068;-71
2022/07/14 11:22:19;;;;;;;0.52;0.52;;;27.10;41.60;;;;;;5039551;28;20071;-72
2022/07/14 11:24:57;;;;;;;1.67;0.40;;;27.30;41.00;;;;;;5038646;28;20476;-71
2022/07/14 11:27:47;;;;;;;0.50;0.50;;;27.30;41.00;;;;;;5051156;28;20483;-66
2022/07/14 11:30:23;;;;;;;0.47;0.47;;;27.40;40.80;;;;;;5051188;28;20029;-71
2022/07/14 11:33:05;;;;;;;0.30;0.30;;;27.30;40.80;;;;;;5046235;28;20017;-65
2022/07/14 11:36:18;;;;;;;0.65;0.40;;;27.20;40.70;;;;;;5056847;28;20090;-66
2022/07/14 11:38:44;;;;;;;0.73;0.70;;;27.20;40.90;;;;;;5041502;28;20040;-66
2022/07/14 11:41:12;;;;;;;0.40;0.40;;;27.20;40.60;;;;;;5048205;28;20032;-71
2022/07/14 11:43:43;;;;;;;0.30;0.30;;;27.20;40.70;;;;;;5054325;28;20025;-66
2022/07/14 11:46:15;;;;;;;0.30;0.30;;;27.00;40.60;;;;;;5050562;28;20033;-65
2022/07/14 11:48:50;;;;;;;0.30;0.30;;;26.90;40.80;;;;;;5066633;28;20468;-66
2022/07/14 11:51:22;;;;;;;0.60;0.60;;;26.80;41.10;;;;;;5050590;28;20030;-66
2022/07/14 11:53:55;;;;;;;0.88;0.75;;;26.90;41.00;;;;;;5060432;28;20040;-66
2022/07/14 11:56:23;;;;;;;0.47;0.47;;;26.90;41.20;;;;;;5048166;28;20135;-66
2022/07/14 11:58:50;;;;;;;0.50;0.50;;;27.00;41.30;;;;;;5046091;28;20041;-66
2022/07/14 12:01:16;;;;;;;0.50;0.50;;;27.10;41.40;;;;;;5044076;28;20045;-66
2022/07/14 12:03:41;;;;;;;0.30;0.30;;;27.00;40.60;;;;;;5048566;28;20533;-66
2022/07/14 12:06:07;;;;;;;0.50;0.50;;;27.00;40.70;;;;;;5050356;28;20534;-73
2022/07/14 12:08:36;;;;;;;0.95;0.50;;;27.00;40.90;;;;;;5049914;28;20368;-66
2022/07/14 12:11:04;;;;;;;0.50;0.50;;;27.00;41.00;;;;;;5050083;28;20441;-66
2022/07/14 12:13:30;;;;;;;0.85;0.73;;;27.00;40.50;;;;;;5049642;28;20025;-66
2022/07/14 12:16:01;;;;;;;0.98;0.70;;;27.10;40.10;;;;;;5049998;28;20029;-66
2022/07/14 12:18:31;;;;;;;0.60;0.60;;;27.10;40.30;;;;;;5049918;28;20429;-66
2022/07/14 12:20:59;;;;;;;1.05;0.75;;;27.20;39.90;;;;;;5067871;28;21511;-66
2022/07/14 12:23:25;;;;;;;1.13;0.50;;;27.10;39.90;;;;;;5058920;28;20058;-66
2022/07/14 12:25:51;;;;;;;0.30;0.30;;;27.10;40.00;;;;;;5046212;28;20465;-66
2022/07/14 12:28:18;;;;;;;0.40;0.40;;;27.20;40.10;;;;;;5041861;28;20434;-72
2022/07/14 12:30:58;;;;;;;0.73;0.50;;;27.30;40.10;;;;;;5047780;28;20447;-72
2022/07/14 12:33:32;;;;;;;0.55;0.40;;;27.60;40.40;;;;;;5046021;28;20031;-71
2022/07/14 12:36:00;;;;;;;0.45;0.43;;;27.80;40.20;;;;;;5048215;28;20024;-71
2022/07/14 12:38:28;;;;;;;0.32;0.32;;;28.00;40.20;;;;;;5040976;28;20027;-65
2022/07/14 12:40:57;;;;;;;0.52;0.40;;;28.20;40.10;;;;;;5044468;28;20099;-65
2022/07/14 12:43:24;;;;;;;0.40;0.40;;;28.40;39.80;;;;;;5035592;28;20029;-71
2022/07/14 12:46:07;;;;;;;0.60;0.57;;;28.60;39.40;;;;;;5049690;28;20467;-66
2022/07/14 12:49:01;;;;;;;0.95;0.50;;;28.50;38.40;;;;;;5063217;28;20036;-65
2022/07/14 12:51:35;;;;;;;0.40;0.40;;;28.50;38.20;;;;;;5047549;28;20392;-65
2022/07/14 12:54:03;;;;;;;2.30;0.93;;;28.30;38.40;;;;;;5062063;28;20028;-65
2022/07/14 12:56:35;;;;;;;0.90;0.52;;;28.40;38.50;;;;;;5048660;28;20506;-65
2022/07/14 12:59:04;;;;;;;0.47;0.47;;;28.40;38.30;;;;;;5037394;28;20029;-65